Time;durP1;ratioP1;P1;durP2;ratioP2;P2;SDS_P1;SDS_P2;PMS_P1;PMS_P2;Temp;Humidity;BMP_temperature;BMP_pressure;BME280_temperature;BME280_humidity;BME280_pressure;Samples;Min_cycle;Max_cycle;Signal;HPM_P1;HPM_P2
2023/05/17 00:00:55;;;;;;;12.07;7.53;;;10.50;99.90;;;;;;5073685;28;20043;-60
2023/05/17 00:03:21;;;;;;;13.95;7.75;;;10.50;99.90;;;;;;5073869;28;20033;-60
2023/05/17 00:05:48;;;;;;;12.80;7.55;;;10.50;99.90;;;;;;5073442;28;20399;-63
2023/05/17 00:08:15;;;;;;;14.10;8.05;;;10.50;99.90;;;;;;5073792;28;20090;-60
2023/05/17 00:10:42;;;;;;;18.90;8.45;;;10.50;99.90;;;;;;5073817;28;20040;-61
2023/05/17 00:13:09;;;;;;;16.17;9.38;;;10.40;99.90;;;;;;5073459;28;20045;-63
2023/05/17 00:15:36;;;;;;;22.00;9.95;;;10.40;99.90;;;;;;5073545;28;20044;-63
2023/05/17 00:18:03;;;;;;;18.10;10.68;;;10.40;99.90;;;;;;5073378;28;20127;-62
2023/05/17 00:20:29;;;;;;;18.67;10.50;;;10.30;99.90;;;;;;5072968;28;20044;-62
2023/05/17 00:22:56;;;;;;;21.85;11.25;;;10.30;99.90;;;;;;5073597;28;20064;-63
2023/05/17 00:25:23;;;;;;;23.80;11.43;;;10.30;99.90;;;;;;5073459;28;20036;-62
2023/05/17 00:27:50;;;;;;;26.50;13.27;;;10.20;99.90;;;;;;5073134;28;20059;-62
2023/05/17 00:30:17;;;;;;;24.52;13.10;;;10.20;99.90;;;;;;5072130;28;20040;-62
2023/05/17 00:32:45;;;;;;;28.42;15.07;;;10.10;99.90;;;;;;5054713;28;20372;-62
2023/05/17 00:35:12;;;;;;;24.23;13.98;;;10.10;99.90;;;;;;5073450;28;20483;-62
2023/05/17 00:37:39;;;;;;;26.48;15.05;;;10.10;99.90;;;;;;5076811;28;20474;-62
2023/05/17 00:40:06;;;;;;;28.85;15.70;;;10.10;99.90;;;;;;5059384;28;20505;-62
2023/05/17 00:42:33;;;;;;;25.85;14.50;;;10.10;99.90;;;;;;5059316;28;20037;-63
2023/05/17 00:45:00;;;;;;;29.30;13.57;;;10.00;99.90;;;;;;5077547;28;20044;-62
2023/05/17 00:47:27;;;;;;;24.70;13.48;;;10.00;99.90;;;;;;5077260;28;20479;-63
2023/05/17 00:49:54;;;;;;;22.25;13.00;;;10.00;99.90;;;;;;5059156;28;20043;-62
2023/05/17 00:52:20;;;;;;;22.02;12.55;;;9.90;99.90;;;;;;5059591;28;20048;-62
2023/05/17 00:54:47;;;;;;;21.85;12.45;;;9.90;99.90;;;;;;5077375;28;20422;-62
2023/05/17 00:57:14;;;;;;;26.13;11.98;;;9.80;99.90;;;;;;5076856;28;20040;-62
2023/05/17 00:59:41;;;;;;;19.27;10.93;;;9.80;99.90;;;;;;5059145;28;20044;-63
2023/05/17 01:02:07;;;;;;;21.17;11.13;;;9.80;99.90;;;;;;5059452;28;20051;-62
2023/05/17 01:04:34;;;;;;;26.42;13.50;;;9.80;99.90;;;;;;5059532;28;20032;-63
2023/05/17 01:07:01;;;;;;;23.75;14.32;;;9.70;99.90;;;;;;5077448;28;20111;-63
2023/05/17 01:09:28;;;;;;;25.88;12.88;;;9.80;99.90;;;;;;5076861;28;20044;-62
2023/05/17 01:11:55;;;;;;;25.00;13.88;;;9.70;99.90;;;;;;5076752;28;20037;-63
2023/05/17 01:14:23;;;;;;;24.75;12.75;;;9.70;99.90;;;;;;5076821;28;20340;-63
2023/05/17 01:16:50;;;;;;;17.90;10.75;;;9.70;99.90;;;;;;5058696;28;20131;-62
2023/05/17 01:19:16;;;;;;;21.10;11.98;;;9.70;99.90;;;;;;5076857;28;20047;-63
2023/05/17 01:21:44;;;;;;;21.90;12.98;;;9.70;99.90;;;;;;5076308;28;20071;-62
2023/05/17 01:24:11;;;;;;;29.02;15.25;;;9.60;99.90;;;;;;5076533;28;20098;-62
2023/05/17 01:26:39;;;;;;;29.08;13.82;;;9.60;99.90;;;;;;5076700;28;20045;-63
2023/05/17 01:29:06;;;;;;;20.23;12.65;;;9.60;99.90;;;;;;5058557;28;20055;-63
2023/05/17 01:31:32;;;;;;;19.20;10.93;;;9.60;99.90;;;;;;5058591;28;20044;-62
2023/05/17 01:34:00;;;;;;;15.82;10.18;;;9.50;99.90;;;;;;5076316;28;20206;-63
2023/05/17 01:36:27;;;;;;;22.45;12.40;;;9.50;99.90;;;;;;5076180;28;20480;-62
2023/05/17 01:38:53;;;;;;;19.67;12.38;;;9.50;99.90;;;;;;5076077;28;20033;-63
2023/05/17 01:41:20;;;;;;;29.75;15.27;;;9.50;99.90;;;;;;5041635;28;20056;-63
2023/05/17 01:43:47;;;;;;;24.92;13.07;;;9.40;99.90;;;;;;5076272;28;20040;-62
2023/05/17 01:46:14;;;;;;;21.55;10.48;;;9.40;99.90;;;;;;5075817;28;20061;-62
2023/05/17 01:48:41;;;;;;;16.88;10.07;;;9.40;99.90;;;;;;5056575;28;20044;-62
2023/05/17 01:51:07;;;;;;;18.80;9.85;;;9.40;99.90;;;;;;5057942;28;20487;-62
2023/05/17 01:53:34;;;;;;;15.52;9.95;;;9.40;99.90;;;;;;5057895;28;20131;-63
2023/05/17 01:56:01;;;;;;;19.42;10.80;;;9.40;99.90;;;;;;5076025;28;20043;-62
2023/05/17 01:58:28;;;;;;;17.98;9.43;;;9.30;99.90;;;;;;5057932;28;20036;-63
2023/05/17 02:00:55;;;;;;;15.20;8.65;;;9.30;99.90;;;;;;5057514;28;20067;-62
2023/05/17 02:03:22;;;;;;;14.05;8.88;;;9.30;99.90;;;;;;5075965;28;20043;-62
2023/05/17 02:05:51;;;;;;;14.40;8.90;;;9.20;99.90;;;;;;5057790;28;20127;-62
2023/05/17 02:08:18;;;;;;;17.50;8.60;;;9.30;99.90;;;;;;5057713;28;20037;-62
2023/05/17 02:10:45;;;;;;;18.08;8.82;;;9.30;99.90;;;;;;5076021;28;20426;-63
2023/05/17 02:13:11;;;;;;;15.50;8.80;;;9.20;99.90;;;;;;5058110;28;20098;-62
2023/05/17 02:15:38;;;;;;;18.23;8.88;;;9.20;99.90;;;;;;5058116;28;20076;-63
2023/05/17 02:18:05;;;;;;;14.43;8.52;;;9.20;99.90;;;;;;5057336;28;20044;-63
2023/05/17 02:20:32;;;;;;;15.35;8.70;;;9.10;99.90;;;;;;5075577;28;20053;-62
2023/05/17 02:22:59;;;;;;;15.98;8.88;;;9.10;99.90;;;;;;5075403;28;20158;-62
2023/05/17 02:25:26;;;;;;;15.38;8.75;;;9.10;99.90;;;;;;5075671;28;20098;-63
2023/05/17 02:27:53;;;;;;;20.55;10.98;;;9.10;99.90;;;;;;5075629;28;20041;-62
2023/05/17 02:30:21;;;;;;;21.23;11.95;;;9.00;99.90;;;;;;5075202;28;20044;-62
2023/05/17 02:32:47;;;;;;;27.25;13.80;;;9.00;99.90;;;;;;5057000;28;20044;-62
2023/05/17 02:35:14;;;;;;;34.03;15.65;;;9.00;99.90;;;;;;5075341;28;20037;-62
2023/05/17 02:37:41;;;;;;;31.55;16.40;;;8.90;99.90;;;;;;5075207;28;20036;-63
2023/05/17 02:40:11;;;;;;;33.15;17.88;;;8.90;99.90;;;;;;5057221;28;20050;-62
2023/05/17 02:42:38;;;;;;;34.83;18.13;;;8.90;99.90;;;;;;5057350;28;20467;-63
2023/05/17 02:45:04;;;;;;;34.60;17.40;;;8.80;99.90;;;;;;5074777;28;20068;-62
2023/05/17 02:47:31;;;;;;;32.67;17.00;;;8.70;99.90;;;;;;5057386;28;20109;-63
2023/05/17 02:49:59;;;;;;;29.80;16.10;;;8.70;99.90;;;;;;5074756;28;20048;-62
2023/05/17 02:52:26;;;;;;;30.70;15.73;;;8.70;99.90;;;;;;5056739;28;20047;-62
2023/05/17 02:54:53;;;;;;;29.38;15.85;;;8.70;99.90;;;;;;5056778;28;20113;-62
2023/05/17 02:57:20;;;;;;;35.28;16.05;;;8.70;99.90;;;;;;5056927;28;20135;-63
2023/05/17 02:59:46;;;;;;;28.30;15.80;;;8.70;99.90;;;;;;5056299;28;20153;-62
2023/05/17 03:02:13;;;;;;;30.75;15.07;;;8.70;99.90;;;;;;5056520;28;20094;-62
2023/05/17 03:04:40;;;;;;;27.15;14.05;;;8.70;99.90;;;;;;5056677;28;20131;-62
2023/05/17 03:07:07;;;;;;;26.33;14.25;;;8.70;99.90;;;;;;5056426;28;20102;-63
2023/05/17 03:09:36;;;;;;;29.63;13.77;;;8.70;99.90;;;;;;5056936;28;20450;-62
2023/05/17 03:12:03;;;;;;;28.45;13.70;;;8.70;99.90;;;;;;5056852;28;20040;-62
2023/05/17 03:14:32;;;;;;;26.77;13.52;;;8.60;99.90;;;;;;5056838;28;20063;-63
2023/05/17 03:17:00;;;;;;;26.48;13.43;;;8.60;99.90;;;;;;5056168;28;20557;-63
2023/05/17 03:19:27;;;;;;;30.23;13.95;;;8.60;99.90;;;;;;5056694;28;20040;-62
2023/05/17 03:21:54;;;;;;;25.73;13.43;;;8.60;99.90;;;;;;5056031;28;20049;-63
2023/05/17 03:24:21;;;;;;;27.65;12.98;;;8.60;99.90;;;;;;5056606;28;20075;-62
2023/05/17 03:26:49;;;;;;;25.17;12.57;;;8.50;99.90;;;;;;5056093;28;20124;-62
2023/05/17 03:29:16;;;;;;;27.10;13.07;;;8.50;99.90;;;;;;5056781;28;20044;-62
2023/05/17 03:31:43;;;;;;;25.00;12.27;;;8.50;99.90;;;;;;5055909;28;20439;-62
2023/05/17 03:34:11;;;;;;;22.02;12.55;;;8.50;99.90;;;;;;5055988;28;20140;-62
2023/05/17 03:36:39;;;;;;;25.83;11.98;;;8.50;99.90;;;;;;5056575;28;20045;-62
2023/05/17 03:39:07;;;;;;;22.08;12.07;;;8.50;99.90;;;;;;5056338;28;20048;-63
2023/05/17 03:41:36;;;;;;;24.30;12.38;;;8.50;99.90;;;;;;5055814;28;20040;-63
2023/05/17 03:44:03;;;;;;;22.58;13.38;;;8.50;99.90;;;;;;5055790;28;20040;-62
2023/05/17 03:46:32;;;;;;;21.90;12.75;;;8.40;99.90;;;;;;5039380;28;20044;-62
2023/05/17 03:48:58;;;;;;;28.65;13.38;;;8.40;99.90;;;;;;5056508;28;20539;-62
2023/05/17 03:51:25;;;;;;;26.50;13.93;;;8.40;99.90;;;;;;5055641;28;20450;-62
2023/05/17 03:53:52;;;;;;;27.77;14.10;;;8.40;99.90;;;;;;5056198;28;20067;-62
2023/05/17 03:56:19;;;;;;;32.75;14.15;;;8.40;99.90;;;;;;5074186;28;20044;-62
2023/05/17 03:58:46;;;;;;;27.17;14.05;;;8.30;99.90;;;;;;5073567;28;20415;-63
2023/05/17 04:01:14;;;;;;;28.02;13.73;;;8.30;99.90;;;;;;5055487;28;20043;-63
2023/05/17 04:03:40;;;;;;;26.30;13.82;;;8.30;99.90;;;;;;5073734;28;20059;-63
2023/05/17 04:06:07;;;;;;;24.05;13.02;;;8.30;99.90;;;;;;5073703;28;20040;-63
2023/05/17 04:08:36;;;;;;;26.30;14.10;;;8.30;99.90;;;;;;5055533;28;20070;-63
2023/05/17 04:11:09;;;;;;;24.70;13.35;;;8.30;99.90;;;;;;5055005;28;20392;-63
2023/05/17 04:13:36;;;;;;;26.90;13.48;;;8.30;99.90;;;;;;5055581;28;20045;-62
2023/05/17 04:16:03;;;;;;;27.45;12.63;;;8.20;99.90;;;;;;5056132;28;20072;-63
2023/05/17 04:18:30;;;;;;;24.33;11.98;;;8.30;99.90;;;;;;5055849;28;20068;-62
2023/05/17 04:20:57;;;;;;;20.48;11.98;;;8.30;99.90;;;;;;5073209;28;20049;-62
2023/05/17 04:23:24;;;;;;;20.52;11.10;;;8.30;99.90;;;;;;5055640;28;20047;-62
2023/05/17 04:25:51;;;;;;;19.05;11.02;;;8.30;99.90;;;;;;5055986;28;20041;-63
2023/05/17 04:28:20;;;;;;;21.92;10.80;;;8.30;99.90;;;;;;5055759;28;20053;-62
2023/05/17 04:30:47;;;;;;;25.38;10.70;;;8.30;99.90;;;;;;5055575;28;20102;-62
2023/05/17 04:33:14;;;;;;;21.23;11.30;;;8.30;99.90;;;;;;5055789;28;20052;-62
2023/05/17 04:35:41;;;;;;;20.98;11.13;;;8.30;99.90;;;;;;5073634;28;20067;-61
2023/05/17 04:38:08;;;;;;;22.30;10.85;;;8.30;99.90;;;;;;5055045;28;20055;-61
2023/05/17 04:40:35;;;;;;;22.85;12.40;;;8.30;99.90;;;;;;5055371;28;20042;-62
2023/05/17 04:43:02;;;;;;;26.42;11.77;;;8.30;99.90;;;;;;5055560;28;20135;-62
2023/05/17 04:45:29;;;;;;;26.33;11.18;;;8.40;99.90;;;;;;5055221;28;20127;-62
2023/05/17 04:47:58;;;;;;;23.33;11.38;;;8.50;99.90;;;;;;5055274;28;20051;-63
2023/05/17 04:50:25;;;;;;;21.35;10.90;;;8.60;99.90;;;;;;5055205;28;20053;-62
2023/05/17 04:52:52;;;;;;;18.77;10.57;;;8.80;99.90;;;;;;5055069;28;20075;-62
2023/05/17 04:55:19;;;;;;;20.60;10.55;;;8.90;99.90;;;;;;5073314;28;20041;-62
2023/05/17 04:57:46;;;;;;;19.65;10.40;;;9.00;99.90;;;;;;5054981;28;20408;-62
2023/05/17 05:00:14;;;;;;;20.70;10.75;;;9.10;99.90;;;;;;5055170;28;20047;-62
2023/05/17 05:02:46;;;;;;;23.90;10.98;;;9.20;99.90;;;;;;5055669;28;20130;-62
2023/05/17 05:05:13;;;;;;;26.48;11.95;;;9.30;99.90;;;;;;5055226;28;20472;-62
2023/05/17 05:07:42;;;;;;;25.45;10.02;;;9.40;99.90;;;;;;5054979;28;20051;-63
2023/05/17 05:10:11;;;;;;;25.15;10.63;;;9.50;99.90;;;;;;5055187;28;20048;-62
2023/05/17 05:12:38;;;;;;;21.90;10.38;;;9.60;99.90;;;;;;5055337;28;20418;-62
2023/05/17 05:15:05;;;;;;;24.27;11.30;;;9.70;99.90;;;;;;5055354;28;20143;-62
2023/05/17 05:17:34;;;;;;;23.83;11.80;;;9.70;99.90;;;;;;5055433;28;20396;-63
2023/05/17 05:20:01;;;;;;;32.45;11.68;;;9.80;99.90;;;;;;5054381;28;20095;-62
2023/05/17 05:22:28;;;;;;;24.83;12.75;;;9.90;99.90;;;;;;5056262;28;20476;-63
2023/05/17 05:24:55;;;;;;;26.67;13.13;;;10.00;99.90;;;;;;5077160;28;20055;-62
2023/05/17 05:27:22;;;;;;;25.23;12.27;;;10.00;99.90;;;;;;5058582;28;20084;-63
2023/05/17 05:29:49;;;;;;;21.83;11.52;;;10.10;99.90;;;;;;5058294;28;20047;-62
2023/05/17 05:32:16;;;;;;;28.27;12.77;;;10.20;99.90;;;;;;5076527;28;20044;-62
2023/05/17 05:34:45;;;;;;;26.20;12.10;;;10.30;99.90;;;;;;5058289;28;20050;-62
2023/05/17 05:37:12;;;;;;;26.75;11.45;;;10.40;99.90;;;;;;5058247;28;20102;-61
2023/05/17 05:39:39;;;;;;;25.30;11.73;;;10.50;99.90;;;;;;5058575;28;20047;-61
2023/05/17 05:42:06;;;;;;;26.23;12.10;;;10.60;99.90;;;;;;5058855;28;20036;-61
2023/05/17 05:44:33;;;;;;;24.98;12.10;;;10.70;99.90;;;;;;5058321;28;20387;-61
2023/05/17 05:47:00;;;;;;;23.45;10.52;;;10.70;99.90;;;;;;5058342;28;20071;-62
2023/05/17 05:49:28;;;;;;;22.45;9.90;;;10.70;99.90;;;;;;5058356;28;20053;-61
2023/05/17 05:51:55;;;;;;;19.67;9.48;;;10.70;99.90;;;;;;5058197;28;20045;-62
2023/05/17 05:54:24;;;;;;;24.13;10.48;;;10.70;99.90;;;;;;5058203;28;20048;-61
2023/05/17 05:56:51;;;;;;;20.45;9.07;;;10.70;99.90;;;;;;5076445;28;20045;-62
2023/05/17 05:59:19;;;;;;;19.40;9.48;;;10.70;99.90;;;;;;5057484;28;20068;-62
2023/05/17 06:01:46;;;;;;;19.27;8.52;;;10.70;99.90;;;;;;5057769;28;20037;-62
2023/05/17 06:04:13;;;;;;;18.35;8.25;;;10.70;99.90;;;;;;5077550;28;20059;-61
2023/05/17 06:06:40;;;;;;;18.75;8.20;;;10.70;99.90;;;;;;5095542;28;20038;-62
2023/05/17 06:09:10;;;;;;;13.98;7.43;;;10.70;99.90;;;;;;5095824;28;20044;-61
2023/05/17 06:11:38;;;;;;;16.67;7.25;;;10.70;99.90;;;;;;5095755;28;20051;-61
2023/05/17 06:14:05;;;;;;;16.85;6.82;;;10.80;99.90;;;;;;5095632;28;20101;-61
2023/05/17 06:16:35;;;;;;;16.58;7.50;;;10.80;99.90;;;;;;5095841;28;20074;-62
2023/05/17 06:19:02;;;;;;;17.10;7.25;;;10.80;99.90;;;;;;5096126;28;20040;-63
2023/05/17 06:21:28;;;;;;;20.48;6.97;;;10.80;99.90;;;;;;5095817;28;20387;-61
2023/05/17 06:23:55;;;;;;;15.10;7.60;;;10.80;99.90;;;;;;5077586;28;20399;-61
2023/05/17 06:26:22;;;;;;;17.05;7.82;;;10.90;99.90;;;;;;5096002;28;20048;-62
2023/05/17 06:28:49;;;;;;;16.73;7.43;;;10.90;99.90;;;;;;5095654;28;20046;-62
2023/05/17 06:31:16;;;;;;;16.48;6.82;;;10.90;99.90;;;;;;5095594;28;20085;-62
2023/05/17 06:33:45;;;;;;;17.00;7.15;;;10.90;99.90;;;;;;5077320;28;20044;-62
2023/05/17 06:36:12;;;;;;;13.18;6.68;;;10.90;99.90;;;;;;5095552;28;20066;-62
2023/05/17 06:38:39;;;;;;;13.35;6.85;;;10.80;99.90;;;;;;5079090;28;20036;-61
2023/05/17 06:41:06;;;;;;;21.02;7.50;;;10.90;99.90;;;;;;5094215;28;20039;-61
2023/05/17 06:43:33;;;;;;;14.85;6.88;;;10.90;99.90;;;;;;5094786;28;20120;-62
2023/05/17 06:46:03;;;;;;;15.70;6.85;;;10.90;99.90;;;;;;5094704;28;20487;-62
2023/05/17 06:48:29;;;;;;;19.73;7.15;;;11.00;99.90;;;;;;5095030;28;20479;-62
2023/05/17 06:50:56;;;;;;;16.60;8.18;;;11.10;99.90;;;;;;5094738;28;20085;-62
2023/05/17 06:53:23;;;;;;;19.48;7.32;;;11.10;99.90;;;;;;5094614;28;20043;-62
2023/05/17 06:55:50;;;;;;;16.13;7.63;;;11.10;99.90;;;;;;5076624;28;20040;-62
2023/05/17 06:58:17;;;;;;;14.88;7.95;;;11.10;99.90;;;;;;5076436;28;20444;-62
2023/05/17 07:00:43;;;;;;;16.63;7.70;;;11.20;99.90;;;;;;5094342;28;20036;-62
2023/05/17 07:03:10;;;;;;;13.95;7.13;;;11.20;99.90;;;;;;5094347;28;20375;-62
2023/05/17 07:05:37;;;;;;;14.75;7.20;;;11.20;99.90;;;;;;5094367;28;20070;-62
2023/05/17 07:08:04;;;;;;;13.20;6.90;;;11.20;99.90;;;;;;5094317;28;20036;-62
2023/05/17 07:10:31;;;;;;;16.60;7.30;;;11.20;99.90;;;;;;5094321;28;20566;-62
2023/05/17 07:12:58;;;;;;;15.20;7.78;;;11.30;99.90;;;;;;5094348;28;20372;-62
2023/05/17 07:15:25;;;;;;;18.23;6.75;;;11.30;99.90;;;;;;5076090;28;20044;-62
2023/05/17 07:17:52;;;;;;;21.15;7.63;;;11.30;99.90;;;;;;5094206;28;20052;-62
2023/05/17 07:20:19;;;;;;;20.88;8.10;;;11.40;99.90;;;;;;5093454;28;20048;-62
2023/05/17 07:22:47;;;;;;;15.95;7.90;;;11.40;99.90;;;;;;5094181;28;20046;-62
2023/05/17 07:25:17;;;;;;;17.88;7.75;;;11.40;99.90;;;;;;5094042;28;20054;-62
2023/05/17 07:27:44;;;;;;;17.02;7.93;;;11.40;99.90;;;;;;5093892;28;20475;-62
2023/05/17 07:30:11;;;;;;;17.77;7.95;;;11.50;99.90;;;;;;5093993;28;20079;-62
2023/05/17 07:32:38;;;;;;;18.88;8.25;;;11.60;99.90;;;;;;5094393;28;20040;-62
2023/05/17 07:35:05;;;;;;;14.90;8.02;;;11.60;99.90;;;;;;5094167;28;20047;-62
2023/05/17 07:37:32;;;;;;;14.23;7.35;;;11.70;99.90;;;;;;5075761;28;20199;-62
2023/05/17 07:39:59;;;;;;;16.80;7.70;;;11.70;99.90;;;;;;5093853;28;20042;-62
2023/05/17 07:42:25;;;;;;;13.20;7.85;;;11.80;99.90;;;;;;5075623;28;20040;-62
2023/05/17 07:44:52;;;;;;;14.27;7.78;;;11.90;99.90;;;;;;5075629;28;20044;-62
2023/05/17 07:47:21;;;;;;;15.23;7.90;;;11.90;99.90;;;;;;5093032;28;20498;-62
2023/05/17 07:49:48;;;;;;;16.48;7.50;;;12.00;99.90;;;;;;5093387;28;20051;-62
2023/05/17 07:52:15;;;;;;;13.30;6.97;;;12.00;99.90;;;;;;5076166;28;20043;-61
2023/05/17 07:54:42;;;;;;;13.93;7.93;;;12.10;99.90;;;;;;5093445;28;20495;-62
2023/05/17 07:57:10;;;;;;;15.07;7.53;;;12.10;99.90;;;;;;5076820;28;20472;-62
2023/05/17 07:59:36;;;;;;;17.42;8.07;;;12.20;99.90;;;;;;5073174;28;20083;-62
2023/05/17 08:02:03;;;;;;;15.35;8.00;;;12.30;99.90;;;;;;5073461;28;20059;-62
2023/05/17 08:04:30;;;;;;;16.08;8.18;;;12.30;99.90;;;;;;5073045;28;20036;-62
2023/05/17 08:06:59;;;;;;;20.25;9.70;;;12.30;99.90;;;;;;5072985;28;20455;-62
2023/05/17 08:09:26;;;;;;;16.60;8.85;;;12.30;99.90;;;;;;5073016;28;20111;-62
2023/05/17 08:11:53;;;;;;;15.20;7.72;;;12.40;99.90;;;;;;5073136;28;20040;-62
2023/05/17 08:14:20;;;;;;;14.40;7.78;;;12.40;99.90;;;;;;5039037;28;20048;-62
2023/05/17 08:16:46;;;;;;;16.33;8.10;;;12.50;99.90;;;;;;5055092;28;20399;-62
2023/05/17 08:19:14;;;;;;;16.77;8.25;;;12.60;99.90;;;;;;5073000;28;20399;-62
2023/05/17 08:21:41;;;;;;;15.18;7.70;;;12.60;99.90;;;;;;5072921;28;20392;-62
2023/05/17 08:24:08;;;;;;;13.70;7.18;;;12.60;99.90;;;;;;5073047;28;20075;-62
2023/05/17 08:26:34;;;;;;;19.13;7.88;;;12.70;99.90;;;;;;5073159;28;20040;-62
2023/05/17 08:29:01;;;;;;;15.43;7.82;;;12.90;99.90;;;;;;5073035;28;20041;-62
2023/05/17 08:31:28;;;;;;;14.60;7.90;;;13.00;99.90;;;;;;5072801;28;20033;-62
2023/05/17 08:33:55;;;;;;;16.73;8.10;;;13.10;99.90;;;;;;5072728;28;20041;-61
2023/05/17 08:36:22;;;;;;;13.25;7.53;;;13.20;99.90;;;;;;5072939;28;20129;-62
2023/05/17 08:38:50;;;;;;;14.18;6.95;;;13.20;99.90;;;;;;5092551;28;20040;-62
2023/05/17 08:41:17;;;;;;;15.52;7.28;;;13.20;99.90;;;;;;5093067;28;20032;-62
2023/05/17 08:43:44;;;;;;;16.05;8.63;;;13.20;99.90;;;;;;5092976;28;20089;-62
2023/05/17 08:46:10;;;;;;;19.27;8.23;;;13.30;99.90;;;;;;5093146;28;20040;-63
2023/05/17 08:48:40;;;;;;;16.02;7.78;;;13.30;99.90;;;;;;5093104;28;20028;-63
2023/05/17 08:51:10;;;;;;;13.80;8.15;;;13.40;99.90;;;;;;5075020;28;20048;-63
2023/05/17 08:53:37;;;;;;;14.02;8.13;;;13.40;99.90;;;;;;5093407;28;20048;-62
2023/05/17 08:56:05;;;;;;;16.50;7.97;;;13.50;99.90;;;;;;5093116;28;20043;-62
2023/05/17 08:58:32;;;;;;;17.77;8.07;;;13.50;99.90;;;;;;5095926;28;20051;-62
2023/05/17 09:01:17;;;;;;;14.77;7.93;;;13.60;99.90;;;;;;5097178;28;20043;-62
2023/05/17 09:03:44;;;;;;;16.98;7.50;;;13.70;99.90;;;;;;5096817;28;20618;-62
2023/05/17 09:06:12;;;;;;;16.73;8.32;;;13.80;99.90;;;;;;5096821;28;20041;-62
2023/05/17 09:08:39;;;;;;;15.65;7.95;;;13.90;99.90;;;;;;5097042;28;20391;-63
2023/05/17 09:11:06;;;;;;;14.60;7.80;;;13.90;99.90;;;;;;5096419;28;20086;-63
2023/05/17 09:13:33;;;;;;;17.52;7.30;;;13.90;99.90;;;;;;5096830;28;20052;-62
2023/05/17 09:16:00;;;;;;;13.65;7.68;;;13.90;99.90;;;;;;5096564;28;20050;-62
2023/05/17 09:18:26;;;;;;;17.30;7.72;;;13.90;99.90;;;;;;5096702;28;20051;-62
2023/05/17 09:20:53;;;;;;;11.80;6.78;;;14.00;99.90;;;;;;5096113;28;20048;-62
2023/05/17 09:23:21;;;;;;;16.88;7.32;;;14.10;99.90;;;;;;5096361;28;20044;-62
2023/05/17 09:25:47;;;;;;;14.00;7.07;;;14.10;99.90;;;;;;5096514;28;20524;-62
2023/05/17 09:28:15;;;;;;;18.52;7.57;;;14.20;99.90;;;;;;5096551;28;20375;-63
2023/05/17 09:30:42;;;;;;;13.18;7.05;;;14.20;99.90;;;;;;5096324;28;20498;-65
2023/05/17 09:33:09;;;;;;;14.15;7.13;;;14.30;99.90;;;;;;5078288;28;20036;-62
2023/05/17 09:35:37;;;;;;;18.77;7.57;;;14.30;99.90;;;;;;5095023;28;20062;-63
2023/05/17 09:38:04;;;;;;;18.52;7.97;;;14.30;99.90;;;;;;5078384;28;20048;-62
2023/05/17 09:40:31;;;;;;;13.60;7.60;;;14.40;99.90;;;;;;5095823;28;20447;-63
2023/05/17 09:42:57;;;;;;;15.43;6.70;;;14.40;99.90;;;;;;5096173;28;20394;-63
2023/05/17 09:45:25;;;;;;;13.85;6.82;;;14.50;99.90;;;;;;5095929;28;20060;-63
2023/05/17 09:47:52;;;;;;;15.55;6.45;;;14.60;99.90;;;;;;5096316;28;20039;-62
2023/05/17 09:50:19;;;;;;;13.82;5.90;;;14.70;99.90;;;;;;5096009;28;20040;-62
2023/05/17 09:52:49;;;;;;;12.60;6.28;;;14.80;99.90;;;;;;5096093;28;20047;-63
2023/05/17 09:55:16;;;;;;;13.00;6.50;;;14.80;99.90;;;;;;5096231;28;20044;-63
2023/05/17 09:57:43;;;;;;;14.90;6.15;;;14.90;99.90;;;;;;5096188;28;20051;-62
2023/05/17 10:00:10;;;;;;;15.48;7.20;;;15.00;99.90;;;;;;5095541;28;20054;-63
2023/05/17 10:02:39;;;;;;;10.85;6.50;;;15.10;99.90;;;;;;5096016;28;20032;-62
2023/05/17 10:05:06;;;;;;;11.70;5.95;;;15.30;99.90;;;;;;5095698;28;20032;-62
2023/05/17 10:07:33;;;;;;;15.55;6.15;;;15.40;99.90;;;;;;5095146;28;20462;-62
2023/05/17 10:10:00;;;;;;;13.40;6.00;;;15.60;99.90;;;;;;5094343;28;20047;-63
2023/05/17 10:12:28;;;;;;;12.73;6.60;;;15.80;99.90;;;;;;5095740;28;20395;-63
2023/05/17 10:14:55;;;;;;;13.80;6.15;;;16.00;99.90;;;;;;5095563;28;20040;-62
2023/05/17 10:17:23;;;;;;;14.63;6.97;;;16.10;99.70;;;;;;5095594;28;20044;-62
2023/05/17 10:19:50;;;;;;;12.63;6.88;;;16.20;99.50;;;;;;5095551;28;20043;-62
2023/05/17 10:22:17;;;;;;;12.35;6.43;;;16.30;99.20;;;;;;5095297;28;20047;-62
2023/05/17 10:24:50;;;;;;;14.20;6.80;;;16.20;98.70;;;;;;5095751;28;20495;-62
2023/05/17 10:27:17;;;;;;;12.00;6.32;;;16.10;98.80;;;;;;5095621;28;20067;-62
2023/05/17 10:29:44;;;;;;;12.57;6.15;;;16.10;98.40;;;;;;5095068;28;20051;-63
2023/05/17 10:32:16;;;;;;;11.10;6.03;;;16.20;98.50;;;;;;5076715;28;20495;-63
2023/05/17 10:34:43;;;;;;;15.20;5.78;;;16.20;97.80;;;;;;5095374;28;20040;-63
2023/05/17 10:37:12;;;;;;;12.27;6.80;;;16.30;97.80;;;;;;5095317;28;20443;-62
2023/05/17 10:39:42;;;;;;;12.98;6.70;;;16.40;98.00;;;;;;5095084;28;20036;-63
2023/05/17 10:42:09;;;;;;;15.15;6.80;;;16.60;98.00;;;;;;5094670;28;20037;-61
2023/05/17 10:44:40;;;;;;;15.88;6.53;;;16.60;97.00;;;;;;5094627;28;20475;-61
2023/05/17 10:47:07;;;;;;;11.38;6.18;;;16.70;97.60;;;;;;5094899;28;20568;-63
2023/05/17 10:49:34;;;;;;;12.40;6.80;;;16.80;97.20;;;;;;5095252;28;20043;-61
2023/05/17 10:52:01;;;;;;;11.43;6.05;;;17.00;97.20;;;;;;5094834;28;20044;-62
2023/05/17 10:54:28;;;;;;;10.63;5.70;;;17.10;97.00;;;;;;5094931;28;20553;-62
2023/05/17 10:56:55;;;;;;;13.57;5.85;;;17.30;96.00;;;;;;5094807;28;20047;-62
2023/05/17 10:59:22;;;;;;;12.50;6.50;;;17.40;95.70;;;;;;5094402;28;20044;-62
2023/05/17 11:01:48;;;;;;;12.10;5.90;;;17.40;95.60;;;;;;5094374;28;20040;-62
2023/05/17 11:04:16;;;;;;;11.85;6.28;;;17.40;95.00;;;;;;5093843;28;20066;-62
2023/05/17 11:06:43;;;;;;;12.93;6.15;;;17.30;95.20;;;;;;5094650;28;20036;-62
2023/05/17 11:09:10;;;;;;;12.88;6.07;;;17.30;95.20;;;;;;5076076;28;20411;-62
2023/05/17 11:11:37;;;;;;;12.13;6.00;;;17.40;95.70;;;;;;5076055;28;20051;-63
2023/05/17 11:14:04;;;;;;;11.82;5.97;;;17.50;95.50;;;;;;5094574;28;20079;-62
2023/05/17 11:16:31;;;;;;;14.38;6.80;;;17.70;95.90;;;;;;5094540;28;20040;-62
2023/05/17 11:18:57;;;;;;;12.98;6.53;;;17.80;95.10;;;;;;5094486;28;20463;-63
2023/05/17 11:21:25;;;;;;;15.73;6.80;;;17.80;95.40;;;;;;5093642;28;20052;-62
2023/05/17 11:23:52;;;;;;;12.35;6.20;;;17.80;95.80;;;;;;5094214;28;20040;-63
2023/05/17 11:26:18;;;;;;;16.17;6.43;;;17.90;95.00;;;;;;5093456;28;20040;-63
2023/05/17 11:28:45;;;;;;;14.10;6.38;;;17.70;94.40;;;;;;5094052;28;20032;-63
2023/05/17 11:31:12;;;;;;;13.80;6.10;;;17.70;94.80;;;;;;5075993;28;20491;-63
2023/05/17 11:33:39;;;;;;;11.52;6.25;;;17.80;94.10;;;;;;5075893;28;20044;-63
2023/05/17 11:36:06;;;;;;;10.18;6.10;;;17.80;94.80;;;;;;5075688;28;20059;-62
2023/05/17 11:38:33;;;;;;;13.13;5.43;;;17.70;94.20;;;;;;5076228;28;20040;-63
2023/05/17 11:41:00;;;;;;;11.70;5.57;;;17.90;94.00;;;;;;5075553;28;20394;-62
2023/05/17 11:43:29;;;;;;;11.38;5.95;;;17.90;93.60;;;;;;5093797;28;20036;-63
2023/05/17 11:45:56;;;;;;;11.32;5.63;;;17.90;93.50;;;;;;5093717;28;20037;-62
2023/05/17 11:48:23;;;;;;;11.25;5.78;;;18.00;93.60;;;;;;5093038;28;20507;-62
2023/05/17 11:50:50;;;;;;;12.02;5.45;;;18.00;93.40;;;;;;5092378;28;20039;-62
2023/05/17 11:53:17;;;;;;;11.30;4.93;;;18.00;93.70;;;;;;5087222;28;20048;-63
2023/05/17 11:55:44;;;;;;;10.20;5.10;;;17.90;93.40;;;;;;5093924;28;20052;-63
2023/05/17 11:58:11;;;;;;;9.90;5.07;;;17.70;93.80;;;;;;5085855;28;20059;-63
2023/05/17 12:00:39;;;;;;;10.68;5.38;;;17.60;93.50;;;;;;5095137;28;20398;-63
2023/05/17 12:03:06;;;;;;;10.70;5.32;;;17.50;93.60;;;;;;5087532;28;20044;-63
2023/05/17 12:05:33;;;;;;;10.80;5.50;;;17.40;93.60;;;;;;5113561;28;20071;-63
2023/05/17 12:08:00;;;;;;;9.55;5.05;;;17.40;93.50;;;;;;5113629;28;20119;-62
2023/05/17 12:10:26;;;;;;;10.40;4.90;;;17.40;93.90;;;;;;5113258;28;20366;-62
2023/05/17 12:12:53;;;;;;;10.68;4.90;;;17.30;93.70;;;;;;5085805;28;20045;-63
2023/05/17 12:15:20;;;;;;;12.00;4.80;;;17.40;93.80;;;;;;5092262;28;20058;-64
2023/05/17 12:17:47;;;;;;;11.48;4.85;;;17.30;93.50;;;;;;5093262;28;20486;-63
2023/05/17 12:20:17;;;;;;;8.43;4.63;;;17.30;93.60;;;;;;5093097;28;20036;-63
2023/05/17 12:22:44;;;;;;;10.73;4.70;;;17.40;93.50;;;;;;5093218;28;20097;-63
2023/05/17 12:25:11;;;;;;;7.22;4.30;;;17.40;93.50;;;;;;5093671;28;20536;-62
2023/05/17 12:27:37;;;;;;;13.15;5.25;;;17.40;93.90;;;;;;5093419;28;20062;-63
2023/05/17 12:30:04;;;;;;;12.68;5.22;;;17.50;93.80;;;;;;5093434;28;20040;-62
2023/05/17 12:32:31;;;;;;;11.23;5.10;;;17.50;93.30;;;;;;5094175;28;20105;-63
2023/05/17 12:34:58;;;;;;;11.02;5.15;;;17.50;93.70;;;;;;5097502;28;20036;-63